Time,TemperatureF,DewpointF,PressureIn,WindDirection,WindDirectionDegrees,WindSpeedMPH,WindSpeedGustMPH,Humidity,HourlyPrecipIn,Conditions,Clouds,dailyrainin,SoftwareType,DateUTC
2013-03-19 00:02:00,43.6,34.0,29.97,West,271,4.0,10.0,70,0.00,,,0.00,weatherlink.com 1.10,2013-03-19 05:02:00,
2013-03-19 00:17:00,43.4,34.0,29.98,WNW,291,0.0,7.0,70,0.00,,,0.00,weatherlink.com 1.10,2013-03-19 05:17:00,
2013-03-19 00:32:00,42.5,34.0,29.99,WNW,301,0.0,4.0,72,0.00,,,0.00,weatherlink.com 1.10,2013-03-19 05:32:00,
2013-03-19 00:47:00,42.1,32.0,30.00,NW,318,4.0,11.0,67,0.00,,,0.00,weatherlink.com 1.10,2013-03-19 05:47:00,
2013-03-19 01:02:00,42.3,30.0,30.01,NW,319,6.0,11.0,61,0.00,,,0.00,weatherlink.com 1.10,2013-03-19 06:02:00,
2013-03-19 01:17:00,41.6,29.0,30.01,West,280,2.0,11.0,62,0.00,,,0.00,weatherlink.com 1.10,2013-03-19 06:17:00,
2013-03-19 01:32:00,41.1,28.0,30.02,WSW,256,6.0,7.0,61,0.00,,,0.00,weatherlink.com 1.10,2013-03-19 06:32:00,
2013-03-19 01:47:00,40.9,28.0,30.03,West,280,5.0,9.0,60,0.00,,,0.00,weatherlink.com 1.10,2013-03-19 06:47:00,
2013-03-19 02:02:00,40.5,27.0,30.03,WNW,295,2.0,9.0,59,0.00,,,0.00,weatherlink.com 1.10,2013-03-19 07:02:00,
2013-03-19 02:17:00,40.1,25.0,30.03,NW,320,9.0,11.0,56,0.00,,,0.00,weatherlink.com 1.10,2013-03-19 07:17:00,
2013-03-19 02:33:00,39.3,25.0,30.03,WNW,303,6.0,12.0,56,0.00,,,0.00,weatherlink.com 1.10,2013-03-19 07:33:00,
2013-03-19 02:48:00,38.7,24.0,30.04,WNW,295,3.0,10.0,56,0.00,,,0.00,weatherlink.com 1.10,2013-03-19 07:48:00,
2013-03-19 03:03:00,38.0,24.0,30.04,NW,319,3.0,5.0,57,0.00,,,0.00,weatherlink.com 1.10,2013-03-19 08:03:00,
2013-03-19 03:18:00,37.6,24.0,30.04,WNW,294,5.0,7.0,58,0.00,,,0.00,weatherlink.com 1.10,2013-03-19 08:18:00,
2013-03-19 03:33:00,37.1,24.0,30.04,NW,316,4.0,9.0,60,0.00,,,0.00,weatherlink.com 1.10,2013-03-19 08:33:00,
2013-03-19 04:03:00,35.9,25.0,30.05,NNW,345,3.0,6.0,64,0.00,,,0.00,weatherlink.com 1.10,2013-03-19 09:03:00,
2013-03-19 04:18:00,35.5,25.0,30.05,WNW,303,2.0,5.0,66,0.00,,,0.00,weatherlink.com 1.10,2013-03-19 09:18:00,
2013-03-19 04:33:00,34.6,25.0,30.06,NW,304,0.0,1.0,69,0.00,,,0.00,weatherlink.com 1.10,2013-03-19 09:33:00,
2013-03-19 04:48:00,33.7,25.0,30.05,WNW,302,0.0,4.0,71,0.00,,,0.00,weatherlink.com 1.10,2013-03-19 09:48:00,
2013-03-19 05:03:00,32.8,26.0,30.05,WNW,302,0.0,1.0,75,0.00,,,0.00,weatherlink.com 1.10,2013-03-19 10:03:00,
2013-03-19 05:19:00,31.9,25.0,30.05,WNW,302,0.0,0.0,77,0.00,,,0.00,weatherlink.com 1.10,2013-03-19 10:19:00,
2013-03-19 05:33:00,31.5,25.0,30.06,WNW,302,0.0,0.0,78,0.00,,,0.00,weatherlink.com 1.10,2013-03-19 10:33:00,
2013-03-19 05:48:00,31.1,25.0,30.07,WNW,302,1.0,2.0,78,0.00,,,0.00,weatherlink.com 1.10,2013-03-19 10:48:00,
2013-03-19 06:03:00,30.8,25.0,30.08,WNW,302,0.0,1.0,79,0.00,,,0.00,weatherlink.com 1.10,2013-03-19 11:03:00,
2013-03-19 06:18:00,30.5,25.0,30.09,WNW,302,0.0,2.0,81,0.00,,,0.00,weatherlink.com 1.10,2013-03-19 11:18:00,
2013-03-19 06:33:00,31.5,24.0,30.11,WNW,295,1.0,4.0,73,0.00,,,0.00,weatherlink.com 1.10,2013-03-19 11:33:00,
2013-03-19 06:48:00,31.7,24.0,30.11,West,260,1.0,4.0,72,0.00,,,0.00,weatherlink.com 1.10,2013-03-19 11:48:00,
2013-03-19 07:03:00,32.5,23.0,30.11,WSW,237,1.0,4.0,68,0.00,,,0.00,weatherlink.com 1.10,2013-03-19 12:03:00,
2013-03-19 07:18:00,32.8,23.0,30.12,SW,234,1.0,6.0,66,0.00,,,0.00,weatherlink.com 1.10,2013-03-19 12:18:00,
2013-03-19 07:33:00,33.4,23.0,30.12,SW,236,2.0,5.0,65,0.00,,,0.00,weatherlink.com 1.10,2013-03-19 12:33:00,
2013-03-19 07:49:00,34.1,23.0,30.12,WSW,237,3.0,4.0,64,0.00,,,0.00,weatherlink.com 1.10,2013-03-19 12:49:00,
2013-03-19 08:04:00,35.1,23.0,30.12,WSW,253,1.0,5.0,61,0.00,,,0.00,weatherlink.com 1.10,2013-03-19 13:04:00,
2013-03-19 08:19:00,36.0,23.0,30.12,WNW,301,1.0,8.0,59,0.00,,,0.00,weatherlink.com 1.10,2013-03-19 13:19:00,
2013-03-19 08:34:00,36.8,22.0,30.10,NW,310,6.0,9.0,56,0.00,,,0.00,weatherlink.com 1.10,2013-03-19 13:34:00,
2013-03-19 08:49:00,37.2,22.0,30.13,NW,319,10.0,10.0,55,0.00,,,0.00,weatherlink.com 1.10,2013-03-19 13:49:00,
2013-03-19 09:04:00,37.3,21.0,30.13,WSW,251,6.0,14.0,52,0.00,,,0.00,weatherlink.com 1.10,2013-03-19 14:04:00,
2013-03-19 09:19:00,38.0,20.0,30.14,West,264,10.0,12.0,49,0.00,,,0.00,weatherlink.com 1.10,2013-03-19 14:19:00,
2013-03-19 09:34:00,38.8,19.0,30.15,WNW,293,10.0,13.0,45,0.00,,,0.00,weatherlink.com 1.10,2013-03-19 14:34:00,
2013-03-19 09:49:00,39.3,18.0,30.16,NW,318,8.0,15.0,43,0.00,,,0.00,weatherlink.com 1.10,2013-03-19 14:49:00,
2013-03-19 10:04:00,40.2,19.0,30.17,NW,318,6.0,13.0,43,0.00,,,0.00,weatherlink.com 1.10,2013-03-19 15:04:00,
2013-03-19 10:19:00,40.7,19.0,30.17,NW,323,7.0,16.0,41,0.00,,,0.00,weatherlink.com 1.10,2013-03-19 15:19:00,
2013-03-19 10:34:00,41.0,18.0,30.18,NW,322,7.0,14.0,39,0.00,,,0.00,weatherlink.com 1.10,2013-03-19 15:34:00,
2013-03-19 10:49:00,40.6,18.0,30.18,NNW,334,8.0,16.0,40,0.00,,,0.00,weatherlink.com 1.10,2013-03-19 15:49:00,
2013-03-19 11:04:00,40.9,18.0,30.18,NNW,332,7.0,17.0,40,0.00,,,0.00,weatherlink.com 1.10,2013-03-19 16:04:00,
2013-03-19 11:19:00,41.6,19.0,30.18,NW,310,11.0,13.0,41,0.00,,,0.00,weatherlink.com 1.10,2013-03-19 16:19:00,
2013-03-19 11:49:00,42.4,20.0,30.18,NNW,335,5.0,14.0,41,0.00,,,0.00,weatherlink.com 1.10,2013-03-19 16:49:00,
2013-03-19 12:04:00,43.0,19.0,30.18,NNW,332,8.0,12.0,39,0.00,,,0.00,weatherlink.com 1.10,2013-03-19 17:04:00,
2013-03-19 12:19:00,43.3,18.0,30.18,NNW,327,10.0,18.0,37,0.00,,,0.00,weatherlink.com 1.10,2013-03-19 17:19:00,
2013-03-19 12:34:00,44.0,21.0,30.19,West,271,4.0,15.0,40,0.00,,,0.00,weatherlink.com 1.10,2013-03-19 17:34:00,
2013-03-19 12:49:00,44.6,22.0,30.19,NW,308,7.0,17.0,41,0.00,,,0.00,weatherlink.com 1.10,2013-03-19 17:49:00,
2013-03-19 13:04:00,45.3,22.0,30.19,NNW,347,12.0,12.0,40,0.00,,,0.00,weatherlink.com 1.10,2013-03-19 18:04:00,
2013-03-19 13:19:00,45.4,22.0,30.18,NNW,347,10.0,16.0,40,0.00,,,0.00,weatherlink.com 1.10,2013-03-19 18:19:00,
2013-03-19 13:34:00,45.6,22.0,30.19,North,4,8.0,15.0,40,0.00,,,0.00,weatherlink.com 1.10,2013-03-19 18:34:00,
2013-03-19 14:04:00,45.6,21.0,30.18,NNW,344,6.0,16.0,37,0.00,,,0.00,weatherlink.com 1.10,2013-03-19 19:04:00,
2013-03-19 14:19:00,46.0,21.0,30.18,NNW,345,5.0,13.0,38,0.00,,,0.00,weatherlink.com 1.10,2013-03-19 19:19:00,
2013-03-19 14:34:00,46.7,20.0,30.17,NW,320,9.0,14.0,34,0.00,,,0.00,weatherlink.com 1.10,2013-03-19 19:34:00,
2013-03-19 14:49:00,46.3,20.0,30.17,North,4,5.0,17.0,35,0.00,,,0.00,weatherlink.com 1.10,2013-03-19 19:49:00,
2013-03-19 15:19:00,46.8,21.0,30.16,NNW,335,3.0,11.0,36,0.00,,,0.00,weatherlink.com 1.10,2013-03-19 20:19:00,
2013-03-19 15:34:00,47.0,19.0,30.16,WNW,303,9.0,12.0,33,0.00,,,0.00,weatherlink.com 1.10,2013-03-19 20:34:00,
2013-03-19 15:49:00,47.6,17.0,30.16,NNW,347,5.0,12.0,30,0.00,,,0.00,weatherlink.com 1.10,2013-03-19 20:49:00,
2013-03-19 16:04:00,47.9,19.0,30.16,WNW,303,4.0,12.0,32,0.00,,,0.00,weatherlink.com 1.10,2013-03-19 21:04:00,
2013-03-19 16:19:00,48.1,19.0,30.16,North,4,7.0,10.0,31,0.00,,,0.00,weatherlink.com 1.10,2013-03-19 21:19:00,
2013-03-19 16:34:00,48.2,19.0,30.17,NNW,341,0.0,9.0,31,0.00,,,0.00,weatherlink.com 1.10,2013-03-19 21:34:00,
2013-03-19 16:49:00,48.2,19.0,30.16,NNW,328,6.0,9.0,31,0.00,,,0.00,weatherlink.com 1.10,2013-03-19 21:49:00,
2013-03-19 17:04:00,48.2,18.0,30.17,NNW,343,4.0,8.0,30,0.00,,,0.00,weatherlink.com 1.10,2013-03-19 22:04:00,
2013-03-19 17:19:00,47.9,18.0,30.17,NW,322,3.0,8.0,31,0.00,,,0.00,weatherlink.com 1.10,2013-03-19 22:19:00,
2013-03-19 17:34:00,47.9,18.0,30.18,North,354,3.0,9.0,31,0.00,,,0.00,weatherlink.com 1.10,2013-03-19 22:34:00,
2013-03-19 17:49:00,47.9,18.0,30.18,NNW,345,4.0,8.0,30,0.00,,,0.00,weatherlink.com 1.10,2013-03-19 22:49:00,
2013-03-19 18:04:00,47.8,19.0,30.18,NNW,339,3.0,5.0,32,0.00,,,0.00,weatherlink.com 1.10,2013-03-19 23:04:00,
2013-03-19 18:19:00,47.6,19.0,30.18,North,359,2.0,6.0,32,0.00,,,0.00,weatherlink.com 1.10,2013-03-19 23:19:00,
2013-03-19 18:34:00,47.2,20.0,30.19,NNW,347,2.0,3.0,34,0.00,,,0.00,weatherlink.com 1.10,2013-03-19 23:34:00,
2013-03-19 18:49:00,46.8,19.0,30.19,NNW,345,1.0,3.0,33,0.00,,,0.00,weatherlink.com 1.10,2013-03-19 23:49:00,
2013-03-19 19:04:00,46.5,19.0,30.19,NNW,345,0.0,1.0,33,0.00,,,0.00,weatherlink.com 1.10,2013-03-20 00:04:00,
2013-03-19 19:19:00,46.0,20.0,30.18,NNW,345,0.0,1.0,35,0.00,,,0.00,weatherlink.com 1.10,2013-03-20 00:19:00,
2013-03-19 19:34:00,45.5,22.0,30.18,NNW,345,0.0,0.0,39,0.00,,,0.00,weatherlink.com 1.10,2013-03-20 00:34:00,
2013-03-19 19:49:00,44.6,22.0,30.18,NNW,345,0.0,1.0,41,0.00,,,0.00,weatherlink.com 1.10,2013-03-20 00:49:00,
2013-03-19 20:04:00,43.7,23.0,30.18,NNW,345,0.0,0.0,44,0.00,,,0.00,weatherlink.com 1.10,2013-03-20 01:04:00,
2013-03-19 20:19:00,43.0,22.0,30.18,NNW,345,0.0,0.0,44,0.00,,,0.00,weatherlink.com 1.10,2013-03-20 01:19:00,
2013-03-19 20:34:00,42.4,23.0,30.17,NNW,345,0.0,0.0,47,0.00,,,0.00,weatherlink.com 1.10,2013-03-20 01:34:00,
2013-03-19 20:50:00,42.1,25.0,30.17,NNW,345,0.0,0.0,50,0.00,,,0.00,weatherlink.com 1.10,2013-03-20 01:50:00,
2013-03-19 21:05:00,41.8,24.0,30.17,NNW,345,0.0,0.0,49,0.00,,,0.00,weatherlink.com 1.10,2013-03-20 02:05:00,
2013-03-19 21:20:00,41.5,26.0,30.17,NNW,345,0.0,0.0,54,0.00,,,0.00,weatherlink.com 1.10,2013-03-20 02:20:00,
2013-03-19 21:35:00,41.1,26.0,30.17,NNW,345,0.0,1.0,55,0.00,,,0.00,weatherlink.com 1.10,2013-03-20 02:35:00,
2013-03-19 21:50:00,40.9,26.0,30.17,NNW,345,0.0,1.0,55,0.00,,,0.00,weatherlink.com 1.10,2013-03-20 02:50:00,
2013-03-19 22:05:00,40.3,26.0,30.17,NNW,345,0.0,1.0,56,0.00,,,0.00,weatherlink.com 1.10,2013-03-20 03:05:00,
2013-03-19 22:20:00,39.7,26.0,30.17,NNW,345,0.0,1.0,59,0.00,,,0.00,weatherlink.com 1.10,2013-03-20 03:20:00,
2013-03-19 22:35:00,38.7,27.0,30.17,NNW,345,0.0,2.0,62,0.00,,,0.00,weatherlink.com 1.10,2013-03-20 03:35:00,
2013-03-19 22:50:00,38.1,26.0,30.17,NNW,345,0.0,2.0,63,0.00,,,0.00,weatherlink.com 1.10,2013-03-20 03:50:00,
2013-03-19 23:05:00,37.8,27.0,30.16,NNW,345,0.0,0.0,64,0.00,,,0.00,weatherlink.com 1.10,2013-03-20 04:05:00,
2013-03-19 23:20:00,37.3,27.0,30.17,NNW,345,0.0,0.0,66,0.00,,,0.00,weatherlink.com 1.10,2013-03-20 04:20:00,
2013-03-19 23:35:00,36.5,27.0,30.17,NNW,345,0.0,0.0,69,0.00,,,0.00,weatherlink.com 1.10,2013-03-20 04:35:00,
2013-03-19 23:50:00,35.7,27.0,30.17,NNW,345,0.0,0.0,71,0.00,,,0.00,weatherlink.com 1.10,2013-03-20 04:50:00,